createdAt,value
2023-04-13T00:02:33.437Z,17.80
2023-04-13T00:07:38.666Z,18.40
2023-04-13T00:12:41.008Z,17.80
2023-04-13T00:17:45.463Z,18.00
2023-04-13T00:22:48.468Z,17.90
2023-04-13T00:27:52.987Z,17.90
2023-04-13T00:32:55.507Z,17.80
2023-04-13T00:37:58.618Z,17.60
2023-04-13T00:43:02.050Z,17.60
2023-04-13T00:48:04.954Z,17.50
2023-04-13T00:53:10.399Z,17.40
2023-04-13T00:58:13.397Z,17.30
2023-04-13T01:03:15.872Z,17.30
2023-04-13T01:08:39.889Z,17.30
2023-04-13T01:13:45.768Z,17.20
2023-04-13T01:18:50.798Z,17.20
2023-04-13T01:24:05.782Z,17.10
2023-04-13T01:29:08.130Z,17.40
2023-04-13T01:34:10.883Z,17.30
2023-04-13T01:39:19.741Z,17.30
2023-04-13T01:44:22.797Z,17.30
2023-04-13T01:49:26.902Z,17.10
2023-04-13T01:54:31.506Z,17.10
2023-04-13T01:59:34.794Z,17.10
2023-04-13T02:04:37.383Z,17.00
2023-04-13T02:09:40.225Z,16.90
2023-04-13T02:14:42.636Z,17.00
2023-04-13T02:19:46.090Z,16.80
2023-04-13T02:24:50.320Z,16.80
2023-04-13T02:29:55.260Z,16.70
2023-04-13T02:34:57.451Z,16.70
2023-04-13T02:40:00.244Z,16.50
2023-04-13T02:45:04.418Z,16.40
2023-04-13T02:50:07.141Z,16.40
2023-04-13T02:55:11.047Z,16.30
2023-04-13T03:00:18.153Z,15.10
2023-04-13T03:05:21.117Z,16.20
2023-04-13T03:10:23.663Z,16.20
2023-04-13T03:15:26.172Z,16.10
2023-04-13T03:20:29.101Z,16.20
2023-04-13T03:25:33.758Z,16.20
2023-04-13T03:30:37.250Z,16.20
2023-04-13T03:40:42.214Z,14.80
2023-04-13T03:45:45.625Z,16.20
2023-04-13T03:50:49.555Z,16.30
2023-04-13T03:55:52.558Z,16.20
2023-04-13T04:00:54.608Z,16.20
2023-04-13T04:05:58.003Z,16.30
2023-04-13T04:11:01.057Z,16.30
2023-04-13T04:16:07.215Z,16.30
2023-04-13T04:21:11.270Z,16.20
2023-04-13T04:26:14.411Z,16.30
2023-04-13T04:31:18.234Z,16.30
2023-04-13T04:36:21.043Z,16.40
2023-04-13T04:41:24.900Z,16.30
2023-04-13T04:46:29.766Z,16.50
2023-04-13T04:51:34.148Z,16.40
2023-04-13T04:56:37.035Z,16.50
2023-04-13T05:01:40.916Z,16.50
2023-04-13T05:06:44.514Z,16.40
2023-04-13T05:11:49.888Z,16.30
2023-04-13T05:16:53.518Z,16.40
2023-04-13T05:21:59.939Z,16.10
2023-04-13T05:27:04.498Z,16.40
2023-04-13T05:32:06.725Z,16.40
2023-04-13T05:37:10.569Z,16.30
2023-04-13T05:42:12.876Z,16.30
2023-04-13T05:47:15.941Z,16.40
2023-04-13T05:52:19.484Z,16.50
2023-04-13T05:57:22.459Z,16.50
2023-04-13T06:02:26.873Z,16.50
2023-04-13T06:07:36.996Z,16.60
2023-04-13T06:12:39.596Z,16.50
2023-04-13T06:17:42.028Z,16.50
2023-04-13T06:22:44.149Z,16.60
2023-04-13T06:27:50.009Z,16.70
2023-04-13T06:32:52.921Z,16.80
2023-04-13T06:37:59.644Z,16.70
2023-04-13T06:43:02.919Z,16.60
2023-04-13T06:48:07.025Z,16.50
2023-04-13T06:53:11.112Z,16.50
2023-04-13T06:58:14.597Z,16.50
2023-04-13T07:03:17.396Z,16.40
2023-04-13T07:08:19.966Z,16.50
2023-04-13T07:13:22.893Z,16.80
2023-04-13T07:18:25.336Z,17.10
2023-04-13T07:28:31.643Z,17.50
2023-04-13T07:33:34.383Z,17.50
2023-04-13T07:38:36.608Z,17.80
2023-04-13T07:43:39.475Z,17.90
2023-04-13T07:48:43.954Z,18.20
2023-04-13T07:53:48.399Z,18.30
2023-04-13T07:58:51.044Z,18.50
2023-04-13T08:03:54.070Z,18.40
2023-04-13T08:08:57.568Z,18.60
2023-04-13T08:13:59.907Z,18.50
2023-04-13T08:19:02.602Z,18.60
2023-04-13T08:24:06.732Z,18.50
2023-04-13T08:29:10.449Z,18.30
2023-04-13T08:34:14.113Z,17.90
2023-04-13T08:39:16.655Z,17.60
2023-04-13T08:44:19.358Z,17.30
2023-04-13T08:49:24.708Z,17.00
2023-04-13T08:54:29.541Z,17.10
2023-04-13T08:59:32.911Z,16.70
2023-04-13T09:04:40.730Z,16.70
2023-04-13T09:09:45.814Z,16.70
2023-04-13T09:14:48.825Z,16.00
2023-04-13T09:19:51.081Z,16.20
2023-04-13T09:24:53.200Z,16.20
2023-04-13T09:29:56.296Z,16.00
2023-04-13T09:34:59.498Z,15.90
2023-04-13T09:40:10.433Z,15.60
2023-04-13T09:45:12.577Z,15.60
2023-04-13T09:50:32.237Z,15.50
2023-04-13T09:55:37.079Z,15.30
2023-04-13T10:00:40.208Z,14.80
2023-04-13T10:05:58.015Z,14.70
2023-04-13T10:11:01.985Z,14.70
2023-04-13T10:16:09.770Z,14.10
2023-04-13T10:21:12.743Z,14.10
2023-04-13T10:26:14.765Z,14.00
2023-04-13T10:31:18.555Z,14.50
2023-04-13T10:36:21.439Z,14.00
2023-04-13T10:41:24.892Z,13.70
2023-04-13T10:46:26.959Z,13.30
2023-04-13T10:51:39.104Z,13.30
2023-04-13T10:56:41.186Z,13.30
2023-04-13T11:01:43.898Z,13.40
2023-04-13T11:06:46.416Z,13.50
2023-04-13T11:11:51.768Z,13.50
2023-04-13T11:16:58.452Z,13.30
2023-04-13T11:22:01.713Z,13.20
2023-04-13T11:32:19.154Z,13.30
2023-04-13T11:37:21.771Z,13.70
2023-04-13T11:42:23.850Z,13.80
2023-04-13T11:47:27.145Z,13.80
2023-04-13T11:52:29.552Z,13.70
2023-04-13T11:57:33.206Z,13.70
2023-04-13T12:07:43.083Z,13.40
2023-04-13T12:12:53.260Z,13.00
2023-04-13T12:18:02.507Z,12.90
2023-04-13T12:23:22.899Z,12.40
2023-04-13T12:28:34.595Z,11.70
2023-04-13T12:33:36.932Z,10.90
2023-04-13T12:38:39.249Z,9.90
2023-04-13T12:43:41.377Z,11.00
2023-04-13T12:48:43.525Z,11.90
2023-04-13T12:53:45.862Z,12.50
2023-04-13T12:58:50.967Z,13.60
2023-04-13T13:03:53.090Z,15.00
2023-04-13T13:08:55.178Z,15.20
2023-04-13T13:13:57.225Z,15.40
2023-04-13T13:18:59.289Z,14.80
2023-04-13T13:24:01.355Z,14.80
2023-04-13T13:29:04.312Z,14.60
2023-04-13T13:34:18.823Z,15.00
2023-04-13T13:39:22.335Z,16.10
2023-04-13T13:44:24.868Z,15.20
2023-04-13T13:49:27.118Z,12.50
2023-04-13T13:59:33.543Z,12.40
2023-04-13T14:04:36.645Z,11.90
2023-04-13T14:09:38.770Z,9.50
2023-04-13T14:14:40.816Z,7.90
2023-04-13T14:19:42.782Z,7.30
2023-04-13T14:24:46.347Z,5.90
2023-04-13T14:29:51.304Z,5.90
2023-04-13T14:34:53.366Z,5.10
2023-04-13T14:39:55.449Z,3.60
2023-04-13T14:44:58.074Z,3.70
2023-04-13T14:50:00.895Z,2.90
2023-04-13T14:55:04.261Z,1.00
2023-04-13T15:00:29.827Z,1.00
2023-04-13T15:05:35.931Z,1.00
2023-04-13T15:10:38.388Z,1.00
2023-04-13T15:15:40.850Z,1.00
2023-04-13T15:20:42.790Z,1.00
2023-04-13T15:25:45.822Z,1.00
2023-04-13T15:30:47.921Z,1.00
2023-04-13T15:35:51.862Z,1.00
2023-04-13T15:40:54.005Z,1.00
2023-04-13T15:45:56.419Z,1.00
2023-04-13T15:51:04.036Z,1.00
2023-04-13T15:56:09.184Z,1.00
2023-04-13T16:01:11.500Z,1.00
2023-04-13T16:06:13.661Z,1.00
2023-04-13T16:11:15.772Z,1.00
2023-04-13T16:16:19.463Z,1.00
2023-04-13T16:21:22.507Z,1.00
2023-04-13T16:26:24.763Z,1.00
2023-04-13T16:31:26.883Z,1.00
2023-04-13T16:36:30.500Z,1.00
2023-04-13T16:41:33.154Z,1.00
2023-04-13T16:46:35.315Z,1.00
2023-04-13T16:51:37.411Z,1.50
2023-04-13T16:56:39.548Z,2.30
2023-04-13T17:01:41.559Z,3.10
2023-04-13T17:06:43.583Z,3.70
2023-04-13T17:11:45.754Z,4.10
2023-04-13T17:16:48.204Z,4.60
2023-04-13T17:21:51.847Z,5.20
2023-04-13T17:26:53.860Z,5.60
2023-04-13T17:31:56.485Z,5.90
2023-04-13T17:36:59.242Z,6.50
2023-04-13T17:42:01.520Z,6.30
2023-04-13T17:47:04.476Z,6.50
2023-04-13T17:52:06.535Z,6.60
2023-04-13T17:57:08.591Z,6.70
2023-04-13T18:02:10.652Z,7.00
2023-04-13T18:07:12.810Z,7.20
2023-04-13T18:12:14.843Z,7.50
2023-04-13T18:17:17.013Z,7.50
2023-04-13T18:22:19.471Z,8.00
2023-04-13T18:27:23.130Z,8.20
2023-04-13T18:32:25.317Z,8.50
2023-04-13T18:37:27.492Z,8.70
2023-04-13T18:42:29.574Z,8.80
2023-04-13T18:47:31.834Z,9.30
2023-04-13T18:52:34.286Z,9.80
2023-04-13T18:57:39.945Z,10.00
2023-04-13T19:02:46.298Z,10.30
2023-04-13T19:07:59.530Z,10.20
2023-04-13T19:13:01.826Z,10.50
2023-04-13T19:18:04.424Z,10.70
2023-04-13T19:23:06.814Z,10.70
2023-04-13T19:28:08.852Z,10.90
2023-04-13T19:33:10.976Z,11.10
2023-04-13T19:38:13.204Z,11.20
2023-04-13T19:43:20.466Z,11.50
2023-04-13T19:48:22.530Z,11.70
2023-04-13T19:53:24.696Z,11.80
2023-04-13T19:58:28.757Z,12.20
2023-04-13T20:03:31.359Z,12.30
2023-04-13T20:08:34.018Z,12.50
2023-04-13T20:13:36.139Z,12.70
2023-04-13T20:18:38.269Z,13.00
2023-04-13T20:23:40.340Z,13.10
2023-04-13T20:28:42.461Z,13.30
2023-04-13T20:33:45.954Z,13.40
2023-04-13T20:38:48.506Z,13.90
2023-04-13T20:43:50.641Z,13.80
2023-04-13T20:48:52.903Z,13.70
2023-04-13T20:53:55.549Z,13.70
2023-04-13T20:58:58.360Z,13.70
2023-04-13T21:04:01.567Z,14.00
2023-04-13T21:09:08.243Z,14.00
2023-04-13T21:14:10.347Z,14.30
2023-04-13T21:19:12.459Z,14.50
2023-04-13T21:24:14.644Z,14.70
2023-04-13T21:29:19.784Z,14.80
2023-04-13T21:34:22.597Z,14.70
2023-04-13T21:39:24.658Z,14.90
2023-04-13T21:44:29.914Z,15.10
2023-04-13T21:49:35.265Z,16.10
2023-04-13T21:54:37.321Z,16.30
2023-04-13T21:59:40.402Z,16.40
2023-04-13T22:04:42.379Z,16.50
2023-04-13T22:09:44.357Z,16.50
2023-04-13T22:14:46.375Z,16.70
2023-04-13T22:19:48.836Z,16.70
2023-04-13T22:24:52.178Z,17.10
2023-04-13T22:29:54.717Z,17.30
2023-04-13T22:34:56.898Z,17.30
2023-04-13T22:40:00.748Z,17.50
2023-04-13T22:45:03.620Z,17.50
2023-04-13T22:50:06.352Z,17.50
2023-04-13T22:55:08.596Z,17.60
2023-04-13T23:00:11.880Z,17.90
2023-04-13T23:05:13.832Z,17.80
2023-04-13T23:10:17.086Z,18.10
2023-04-13T23:15:19.491Z,18.30
2023-04-13T23:20:21.897Z,18.50
2023-04-13T23:25:23.928Z,18.40
2023-04-13T23:30:25.936Z,18.70
2023-04-13T23:35:27.907Z,18.70
2023-04-13T23:40:29.936Z,18.60
2023-04-13T23:45:34.179Z,18.80
2023-04-13T23:50:36.221Z,18.80
2023-04-13T23:55:38.751Z,19.00
